Time;durP1;ratioP1;P1;durP2;ratioP2;P2;SDS_P1;SDS_P2;PMS_P1;PMS_P2;Temp;Humidity;BMP_temperature;BMP_pressure;BME280_temperature;BME280_humidity;BME280_pressure;Samples;Min_cycle;Max_cycle;Signal;HPM_P1;HPM_P2
2021/12/25 00:02:09;;;;;;;2.33;1.40;;;24.40;46.70;;;;;;5018907;28;20297;-48
2021/12/25 00:04:40;;;;;;;2.50;1.48;;;24.40;46.60;;;;;;5031137;28;20250;-53
2021/12/25 00:07:10;;;;;;;4.95;1.48;;;24.50;46.60;;;;;;5031750;28;20682;-42
2021/12/25 00:09:41;;;;;;;2.13;1.50;;;24.50;46.60;;;;;;5030092;28;20708;-48
2021/12/25 00:12:12;;;;;;;3.42;1.40;;;24.50;46.60;;;;;;5029058;28;20691;-50
2021/12/25 00:14:44;;;;;;;3.25;1.50;;;24.50;46.60;;;;;;5029769;28;20236;-47
2021/12/25 00:17:15;;;;;;;1.75;1.20;;;24.50;46.60;;;;;;5029622;28;20255;-53
2021/12/25 00:19:45;;;;;;;1.95;1.30;;;24.50;46.50;;;;;;5030314;28;20305;-50
2021/12/25 00:22:16;;;;;;;2.22;1.25;;;24.60;46.60;;;;;;5039078;22;20282;-55
2021/12/25 00:24:46;;;;;;;2.42;1.10;;;24.60;46.50;;;;;;4995531;28;20205;-44
2021/12/25 00:27:38;;;;;;;1.77;1.20;;;24.60;46.50;;;;;;5011656;28;20232;-54
2021/12/25 00:33:05;;;;;;;3.60;1.40;;;24.70;46.40;;;;;;4970351;28;20229;-46
2021/12/25 00:42:42;;;;;;;2.13;1.30;;;24.70;46.20;;;;;;4991707;28;20307;-49
2021/12/25 00:45:15;;;;;;;1.40;0.80;;;24.70;46.10;;;;;;4991697;28;20285;-47
2021/12/25 00:47:46;;;;;;;2.35;1.25;;;24.80;46.20;;;;;;4990718;28;20293;-51
2021/12/25 00:50:16;;;;;;;2.28;1.10;;;24.80;46.20;;;;;;4985238;28;20218;-47
2021/12/25 00:52:46;;;;;;;2.85;1.48;;;24.80;46.20;;;;;;4982615;28;20284;-49
2021/12/25 00:55:17;;;;;;;2.50;1.08;;;24.80;46.10;;;;;;4992889;28;20279;-44
2021/12/25 00:57:48;;;;;;;2.03;1.25;;;24.80;46.10;;;;;;5007331;28;20299;-57
2021/12/25 01:00:20;;;;;;;2.03;1.00;;;24.90;46.20;;;;;;4991642;28;20281;-56
2021/12/25 01:02:51;;;;;;;3.35;1.40;;;24.80;46.10;;;;;;5003512;28;20287;-52
2021/12/25 01:05:22;;;;;;;3.10;1.20;;;24.90;46.20;;;;;;5002492;28;20233;-54
2021/12/25 01:07:53;;;;;;;2.85;1.10;;;24.90;46.20;;;;;;4999313;28;20198;-50
2021/12/25 01:10:24;;;;;;;1.95;0.93;;;24.90;46.10;;;;;;4991172;28;20289;-49
2021/12/25 01:13:02;;;;;;;3.08;1.30;;;24.90;46.10;;;;;;4992900;28;20283;-56
2021/12/25 01:15:43;;;;;;;3.60;0.98;;;25.00;46.10;;;;;;4991260;28;20201;-58
2021/12/25 01:18:56;;;;;;;2.55;1.10;;;25.00;46.10;;;;;;4991372;28;20652;-54
2021/12/25 01:24:35;;;;;;;2.78;1.17;;;25.00;46.00;;;;;;4996061;28;20221;-58
2021/12/25 01:29:53;;;;;;;2.58;1.05;;;25.00;45.90;;;;;;4952384;28;20321;-47
2021/12/25 01:35:32;;;;;;;2.63;1.05;;;25.10;46.00;;;;;;4991568;28;20205;-54
2021/12/25 01:38:19;;;;;;;1.40;0.88;;;25.10;45.90;;;;;;4983926;28;20221;-50
2021/12/25 01:40:58;;;;;;;2.88;1.00;;;25.10;45.90;;;;;;4997943;28;20209;-54
2021/12/25 01:49:06;;;;;;;1.40;0.90;;;25.10;45.80;;;;;;4989587;28;20237;-59
2021/12/25 01:51:36;;;;;;;1.75;0.90;;;25.20;45.80;;;;;;4977641;28;20236;-58
2021/12/25 01:54:07;;;;;;;1.95;1.00;;;25.20;45.80;;;;;;4990358;28;20276;-56
2021/12/25 01:56:37;;;;;;;2.38;0.95;;;25.20;45.80;;;;;;5004842;28;20848;-58
2021/12/25 01:59:08;;;;;;;1.88;1.00;;;25.20;45.70;;;;;;4990130;28;20317;-58
2021/12/25 02:01:39;;;;;;;1.77;1.08;;;25.20;45.70;;;;;;4990286;28;20202;-44
2021/12/25 02:04:13;;;;;;;3.72;1.17;;;25.20;45.70;;;;;;4990371;28;20288;-54
2021/12/25 02:06:43;;;;;;;2.03;0.93;;;25.20;45.70;;;;;;4990800;28;20284;-56
2021/12/25 02:09:14;;;;;;;2.40;0.93;;;25.20;45.60;;;;;;4991945;28;20299;-58
2021/12/25 02:11:44;;;;;;;2.70;1.17;;;25.30;45.60;;;;;;4989366;28;20285;-57
2021/12/25 02:14:15;;;;;;;3.58;1.42;;;25.30;45.60;;;;;;4990206;28;20224;-58
2021/12/25 02:16:54;;;;;;;2.83;1.13;;;25.30;45.50;;;;;;4989485;28;20237;-58
2021/12/25 02:19:37;;;;;;;1.92;0.90;;;25.20;45.40;;;;;;4991143;28;20221;-51
2021/12/25 02:22:10;;;;;;;2.13;1.02;;;25.20;45.30;;;;;;4992823;28;20209;-57
2021/12/25 02:24:41;;;;;;;4.10;1.30;;;25.30;45.40;;;;;;4989190;28;20281;-58
2021/12/25 02:27:11;;;;;;;2.08;1.05;;;25.30;45.40;;;;;;4988605;28;20284;-58
2021/12/25 02:29:42;;;;;;;2.28;0.80;;;25.30;45.40;;;;;;5006834;28;20663;-57
2021/12/25 02:32:13;;;;;;;2.33;0.98;;;25.20;45.30;;;;;;4990846;28;20228;-48
2021/12/25 02:34:43;;;;;;;2.67;0.98;;;25.20;45.40;;;;;;4980022;28;20289;-58
2021/12/25 02:37:16;;;;;;;1.77;0.98;;;25.20;45.40;;;;;;4994285;28;20654;-58
2021/12/25 02:39:47;;;;;;;1.75;0.93;;;25.30;45.50;;;;;;4991623;28;20301;-58
2021/12/25 02:42:18;;;;;;;4.15;1.27;;;25.30;45.50;;;;;;4978234;28;20237;-54
2021/12/25 02:44:49;;;;;;;1.95;0.85;;;25.30;45.50;;;;;;4992137;28;20288;-57
2021/12/25 02:47:20;;;;;;;1.52;0.90;;;25.30;45.50;;;;;;4990087;28;20292;-57
2021/12/25 02:49:52;;;;;;;3.85;1.30;;;25.30;45.50;;;;;;4989874;28;20290;-54
2021/12/25 02:52:25;;;;;;;3.63;1.10;;;25.30;45.50;;;;;;4979556;28;20511;-50
2021/12/25 02:54:56;;;;;;;2.20;1.10;;;25.30;45.50;;;;;;4983311;28;20289;-59
2021/12/25 02:57:26;;;;;;;1.67;0.95;;;25.30;45.60;;;;;;4991934;28;20736;-58
2021/12/25 02:59:56;;;;;;;1.75;0.93;;;25.30;45.60;;;;;;4988238;28;21713;-39
2021/12/25 03:02:27;;;;;;;3.85;1.10;;;25.30;45.70;;;;;;4984893;28;20280;-50
2021/12/25 03:04:57;;;;;;;4.78;1.10;;;25.30;45.70;;;;;;4988660;28;20353;-58
2021/12/25 03:07:30;;;;;;;3.53;1.13;;;25.30;45.70;;;;;;4988090;28;20296;-55
2021/12/25 03:10:00;;;;;;;2.53;0.93;;;25.30;45.70;;;;;;4987074;28;20299;-57
2021/12/25 03:12:36;;;;;;;2.83;0.98;;;25.30;45.70;;;;;;4986923;28;20276;-49
2021/12/25 03:15:13;;;;;;;2.38;1.00;;;25.30;45.70;;;;;;4987027;28;20204;-50
2021/12/25 03:17:45;;;;;;;2.15;1.02;;;25.30;45.70;;;;;;4987750;28;20257;-51
2021/12/25 03:20:16;;;;;;;2.85;0.90;;;25.30;45.80;;;;;;4987789;28;20304;-42
2021/12/25 03:22:48;;;;;;;3.67;1.08;;;25.30;45.80;;;;;;4988640;28;20288;-58
2021/12/25 03:25:20;;;;;;;3.58;1.00;;;25.20;45.80;;;;;;4986653;28;20716;-57
2021/12/25 03:27:51;;;;;;;2.35;1.02;;;25.30;45.80;;;;;;4988000;28;20204;-49
2021/12/25 03:30:24;;;;;;;2.63;1.00;;;25.30;45.70;;;;;;4987872;28;20256;-48
2021/12/25 03:32:55;;;;;;;1.65;1.00;;;25.30;45.70;;;;;;4987716;28;20209;-55
2021/12/25 03:35:26;;;;;;;3.17;0.98;;;25.30;45.70;;;;;;4987725;28;20288;-52
2021/12/25 03:37:58;;;;;;;3.72;1.05;;;25.20;45.70;;;;;;4992016;28;20239;-55
2021/12/25 03:40:29;;;;;;;3.47;1.00;;;25.30;45.80;;;;;;4992504;28;20284;-59
2021/12/25 03:42:59;;;;;;;3.05;1.00;;;25.30;45.80;;;;;;4992449;28;21012;-55
2021/12/25 03:45:31;;;;;;;3.45;1.20;;;25.30;45.70;;;;;;4990620;28;20292;-42
2021/12/25 03:48:09;;;;;;;2.03;1.00;;;25.30;45.70;;;;;;4991918;28;20197;-57
2021/12/25 03:57:38;;;;;;;4.18;1.33;;;25.30;45.70;;;;;;4991164;28;20268;-40
2021/12/25 03:59:30;;;;;;;3.78;1.20;;;25.20;45.60;;;;;;4948931;28;21181;-50
2021/12/25 04:02:06;;;;;;;3.42;1.20;;;25.20;45.60;;;;;;4948407;28;20257;-57
2021/12/25 04:04:39;;;;;;;2.85;0.90;;;25.20;45.60;;;;;;4970449;28;20195;-51
2021/12/25 04:07:17;;;;;;;2.97;1.15;;;25.20;45.60;;;;;;4989273;28;20197;-43
2021/12/25 04:09:49;;;;;;;3.13;0.98;;;25.20;45.60;;;;;;4989623;28;20225;-53
2021/12/25 04:12:19;;;;;;;2.30;1.10;;;25.10;45.60;;;;;;4991186;28;20277;-50
2021/12/25 04:14:50;;;;;;;4.00;1.15;;;25.20;45.70;;;;;;4990416;28;20280;-46
2021/12/25 04:17:20;;;;;;;3.58;1.20;;;25.10;45.70;;;;;;4991060;28;20252;-47
2021/12/25 04:19:51;;;;;;;2.63;0.80;;;25.10;45.70;;;;;;4989987;28;20312;-55
2021/12/25 04:22:27;;;;;;;3.05;1.02;;;25.10;45.60;;;;;;4990827;28;20311;-42
2021/12/25 04:25:00;;;;;;;3.25;1.05;;;25.10;45.70;;;;;;4989818;28;20200;-50
2021/12/25 04:27:30;;;;;;;2.63;1.05;;;25.10;45.70;;;;;;4989373;28;20233;-55
2021/12/25 04:30:04;;;;;;;3.20;1.02;;;25.10;46.30;;;;;;4990419;28;20260;-49
2021/12/25 05:03:12;;;;;;;2.70;1.10;;;25.10;45.80;;;;;;5047320;28;20215;-45
2021/12/25 05:05:43;;;;;;;2.72;1.08;;;25.10;45.80;;;;;;5048845;28;20197;-48
2021/12/25 05:08:13;;;;;;;3.20;0.98;;;25.10;45.80;;;;;;5042093;28;20255;-42
2021/12/25 05:10:44;;;;;;;2.88;1.10;;;25.10;45.80;;;;;;5047717;28;20367;-40
2021/12/25 05:13:16;;;;;;;2.97;1.10;;;25.10;45.80;;;;;;5048159;28;20290;-40
2021/12/25 05:15:47;;;;;;;2.88;0.85;;;25.10;45.80;;;;;;5048441;28;20275;-40
2021/12/25 05:18:18;;;;;;;2.50;0.90;;;25.10;45.80;;;;;;5049295;28;20322;-42
2021/12/25 05:20:48;;;;;;;1.70;0.88;;;25.10;45.80;;;;;;5047867;28;20576;-40
2021/12/25 05:23:19;;;;;;;3.85;1.20;;;25.10;45.80;;;;;;5048095;28;20223;-40
2021/12/25 05:25:50;;;;;;;2.05;1.00;;;25.10;45.70;;;;;;5048429;28;20734;-40
2021/12/25 05:28:26;;;;;;;3.40;1.13;;;25.10;45.70;;;;;;5048977;28;20222;-39
2021/12/25 05:30:57;;;;;;;2.88;0.98;;;25.10;45.70;;;;;;5047898;28;20203;-40
2021/12/25 05:33:28;;;;;;;2.03;1.05;;;25.10;45.70;;;;;;5048998;28;20286;-40
2021/12/25 05:35:58;;;;;;;5.20;1.38;;;25.00;45.70;;;;;;5048765;28;20283;-40
2021/12/25 05:38:29;;;;;;;2.83;1.23;;;25.00;45.70;;;;;;5047237;28;20301;-40
2021/12/25 05:41:00;;;;;;;3.60;1.25;;;25.00;45.70;;;;;;5047482;28;21600;-39
2021/12/25 05:43:32;;;;;;;2.60;0.90;;;25.00;45.70;;;;;;5047492;28;20294;-40
2021/12/25 05:46:03;;;;;;;3.15;0.98;;;25.00;45.80;;;;;;5048480;28;20208;-40
2021/12/25 05:48:35;;;;;;;2.95;1.23;;;25.00;45.80;;;;;;5049028;28;20303;-48
2021/12/25 05:51:06;;;;;;;2.00;0.93;;;25.00;45.80;;;;;;5047496;28;20191;-46
2021/12/25 05:53:37;;;;;;;2.63;0.90;;;25.00;45.80;;;;;;5047969;28;20278;-46
2021/12/25 05:56:07;;;;;;;1.70;0.85;;;25.00;45.80;;;;;;5048342;28;20282;-40
2021/12/25 05:58:40;;;;;;;1.38;0.98;;;25.00;45.80;;;;;;5047462;28;20314;-45
2021/12/25 06:01:11;;;;;;;2.15;0.93;;;25.00;45.90;;;;;;5047551;28;20294;-41
2021/12/25 06:03:41;;;;;;;3.25;0.77;;;25.00;45.90;;;;;;5047991;28;20196;-44
2021/12/25 06:06:12;;;;;;;2.05;1.00;;;25.00;45.90;;;;;;5048333;28;20749;-44
2021/12/25 06:08:42;;;;;;;2.88;0.77;;;25.00;45.90;;;;;;5048237;28;20315;-43
2021/12/25 06:11:16;;;;;;;1.85;0.80;;;24.90;45.90;;;;;;5047299;28;20884;-46
2021/12/25 06:13:57;;;;;;;1.60;0.75;;;25.00;45.90;;;;;;5047389;28;20559;-46
2021/12/25 06:16:28;;;;;;;3.97;1.15;;;25.00;45.90;;;;;;5046775;28;20897;-43
2021/12/25 06:18:58;;;;;;;2.97;1.10;;;24.90;45.90;;;;;;5046963;28;20322;-48
2021/12/25 06:21:29;;;;;;;2.90;1.10;;;24.90;46.00;;;;;;5047446;28;20290;-41
2021/12/25 06:24:01;;;;;;;2.00;0.80;;;24.90;46.00;;;;;;5048452;28;20295;-49
2021/12/25 06:26:32;;;;;;;2.50;0.90;;;24.90;46.00;;;;;;5047372;28;20223;-46
2021/12/25 06:29:04;;;;;;;2.80;1.15;;;24.90;46.00;;;;;;5046352;28;20702;-45
2021/12/25 06:31:35;;;;;;;1.60;0.63;;;24.90;46.10;;;;;;5047112;28;20631;-43
2021/12/25 06:34:06;;;;;;;1.50;0.80;;;24.90;46.10;;;;;;5047751;28;20201;-44
2021/12/25 06:36:36;;;;;;;1.98;1.00;;;24.90;46.10;;;;;;5047281;28;20245;-49
2021/12/25 06:39:11;;;;;;;2.38;1.00;;;24.90;46.10;;;;;;5047593;28;20310;-41
2021/12/25 06:41:41;;;;;;;1.73;0.93;;;24.90;46.20;;;;;;5047382;28;20223;-44
2021/12/25 06:44:14;;;;;;;2.47;0.90;;;24.90;46.20;;;;;;5047039;28;20585;-49
2021/12/25 06:46:44;;;;;;;2.80;1.10;;;24.90;46.20;;;;;;5046299;28;20290;-45
2021/12/25 06:49:15;;;;;;;2.60;1.00;;;24.90;46.20;;;;;;5043391;28;20348;-51
2021/12/25 06:51:45;;;;;;;1.70;1.00;;;24.90;46.20;;;;;;5046661;28;20325;-45
2021/12/25 06:54:16;;;;;;;1.65;0.70;;;24.90;46.20;;;;;;5046109;28;20640;-43
2021/12/25 06:56:47;;;;;;;1.75;1.00;;;24.90;46.20;;;;;;5047432;28;20283;-43
2021/12/25 06:59:21;;;;;;;2.58;0.95;;;24.90;46.20;;;;;;5047496;28;20312;-43
2021/12/25 07:01:52;;;;;;;1.50;0.80;;;24.90;46.30;;;;;;5045540;28;20209;-42
2021/12/25 07:04:22;;;;;;;2.08;1.20;;;24.90;46.20;;;;;;5047437;28;20286;-44
2021/12/25 07:06:53;;;;;;;3.53;2.17;;;24.90;46.20;;;;;;5047153;28;20286;-47
2021/12/25 07:09:23;;;;;;;3.40;2.00;;;24.90;46.20;;;;;;5047737;28;20905;-47
2021/12/25 07:11:54;;;;;;;4.68;2.28;;;24.90;46.30;;;;;;5051244;28;20290;-41
2021/12/25 07:14:26;;;;;;;3.35;2.30;;;24.90;46.30;;;;;;5050622;28;20290;-47
2021/12/25 07:16:57;;;;;;;4.68;2.60;;;24.90;46.20;;;;;;5051644;28;20726;-47
2021/12/25 07:19:27;;;;;;;3.22;2.35;;;24.90;46.30;;;;;;5048539;28;20234;-48
2021/12/25 07:21:58;;;;;;;2.40;2.13;;;24.90;46.30;;;;;;5050274;28;20198;-48
2021/12/25 07:24:28;;;;;;;3.95;2.67;;;25.00;46.30;;;;;;5050076;28;20282;-47
2021/12/25 07:27:03;;;;;;;4.38;2.90;;;25.00;46.30;;;;;;5050845;28;20288;-45
2021/12/25 07:29:37;;;;;;;3.90;2.65;;;25.00;46.30;;;;;;5051580;28;20225;-48
2021/12/25 07:32:07;;;;;;;5.85;2.92;;;25.00;46.30;;;;;;5049947;28;20188;-46
2021/12/25 07:34:39;;;;;;;6.72;3.10;;;25.00;46.30;;;;;;5050612;28;20278;-46
2021/12/25 07:37:10;;;;;;;4.68;2.95;;;24.90;46.20;;;;;;5050319;28;20204;-48
2021/12/25 07:39:41;;;;;;;4.13;2.55;;;25.00;46.20;;;;;;5050878;28;20710;-48
2021/12/25 07:42:12;;;;;;;5.22;2.70;;;25.00;46.30;;;;;;5048610;28;20318;-48
2021/12/25 07:44:44;;;;;;;4.30;2.58;;;25.00;46.20;;;;;;5050456;28;20738;-45
2021/12/25 07:47:17;;;;;;;3.33;2.20;;;25.00;46.20;;;;;;5050584;28;20274;-49
2021/12/25 07:49:47;;;;;;;6.07;2.60;;;24.90;46.20;;;;;;5050967;28;20234;-45
2021/12/25 07:52:18;;;;;;;4.57;2.30;;;24.90;46.20;;;;;;5049654;28;20282;-40
2021/12/25 07:54:48;;;;;;;2.78;2.00;;;24.90;46.20;;;;;;5049716;28;20310;-45
2021/12/25 07:57:19;;;;;;;2.83;1.98;;;24.90;46.20;;;;;;5050280;28;20196;-39
2021/12/25 07:59:51;;;;;;;5.18;1.98;;;24.90;46.30;;;;;;5050319;28;20786;-49
2021/12/25 08:02:22;;;;;;;3.65;1.52;;;24.90;46.20;;;;;;5050381;28;20295;-47
2021/12/25 08:04:52;;;;;;;4.45;1.77;;;24.90;46.20;;;;;;5050725;28;20271;-42
2021/12/25 08:07:22;;;;;;;3.72;1.45;;;24.90;46.20;;;;;;5050870;28;20290;-48
2021/12/25 08:09:57;;;;;;;3.47;1.50;;;24.80;46.20;;;;;;5050025;28;20294;-46
2021/12/25 08:12:28;;;;;;;3.50;1.63;;;24.80;46.20;;;;;;5050267;28;20227;-43
2021/12/25 08:15:02;;;;;;;3.60;1.38;;;24.80;46.20;;;;;;5050307;28;20282;-47
2021/12/25 08:17:32;;;;;;;3.42;1.42;;;24.70;46.20;;;;;;5049832;28;20290;-49
2021/12/25 08:20:03;;;;;;;5.53;1.50;;;24.70;46.30;;;;;;5050169;28;20246;-45
2021/12/25 08:22:33;;;;;;;4.85;1.52;;;24.70;45.90;;;;;;5042066;28;20274;-42
2021/12/25 08:25:04;;;;;;;3.33;1.33;;;24.70;45.70;;;;;;5048914;28;20282;-40
2021/12/25 08:27:35;;;;;;;5.97;1.40;;;24.60;45.70;;;;;;5050272;28;20275;-46
2021/12/25 08:30:10;;;;;;;2.85;1.23;;;24.60;45.80;;;;;;5049312;28;20730;-39
2021/12/25 08:32:41;;;;;;;4.93;0.95;;;24.50;45.80;;;;;;5049344;28;20210;-40
2021/12/25 08:35:13;;;;;;;3.67;1.13;;;24.50;45.90;;;;;;5049715;28;20290;-44
2021/12/25 08:37:44;;;;;;;3.67;1.17;;;24.50;46.00;;;;;;5050323;28;20305;-46
2021/12/25 08:40:17;;;;;;;3.22;1.10;;;24.50;46.00;;;;;;5050076;28;20685;-44
2021/12/25 08:42:52;;;;;;;2.90;1.00;;;24.50;46.10;;;;;;5049925;28;20286;-40
2021/12/25 08:45:45;;;;;;;3.35;1.35;;;24.40;46.10;;;;;;5049645;28;20227;-40
2021/12/25 08:48:18;;;;;;;3.45;1.20;;;24.40;46.20;;;;;;5048060;28;20223;-45
2021/12/25 08:50:51;;;;;;;2.72;1.10;;;24.40;46.20;;;;;;5048938;28;20223;-40
2021/12/25 08:53:22;;;;;;;1.73;1.05;;;24.40;46.30;;;;;;5049467;28;20290;-41
2021/12/25 08:55:56;;;;;;;1.90;1.00;;;24.30;46.20;;;;;;5048569;28;20283;-40
2021/12/25 08:58:30;;;;;;;3.10;1.00;;;24.30;46.20;;;;;;5048105;28;20231;-40
2021/12/25 09:01:06;;;;;;;2.72;1.00;;;24.30;46.30;;;;;;5049365;28;20231;-40
2021/12/25 09:03:41;;;;;;;1.63;0.95;;;24.30;46.30;;;;;;5049032;28;20715;-40
2021/12/25 09:06:12;;;;;;;2.20;1.10;;;24.30;46.30;;;;;;5047642;28;20673;-45
2021/12/25 09:08:42;;;;;;;4.47;0.90;;;24.30;46.40;;;;;;5047810;28;21547;-40
2021/12/25 09:11:12;;;;;;;3.30;1.17;;;24.20;46.40;;;;;;5048512;28;20207;-43
2021/12/25 09:13:43;;;;;;;1.83;0.95;;;24.20;46.50;;;;;;5048780;28;20234;-49
2021/12/25 09:16:15;;;;;;;3.28;1.10;;;24.20;46.50;;;;;;5049233;28;20278;-40
2021/12/25 09:18:46;;;;;;;2.70;0.93;;;24.20;46.60;;;;;;5048386;28;20243;-40
2021/12/25 09:21:17;;;;;;;2.78;1.02;;;24.20;46.60;;;;;;5048847;28;20228;-40
2021/12/25 09:23:47;;;;;;;2.28;1.15;;;24.20;46.50;;;;;;5048426;28;20287;-40
2021/12/25 09:26:19;;;;;;;2.25;1.10;;;24.20;46.50;;;;;;5047552;28;20764;-41
2021/12/25 09:28:49;;;;;;;2.60;1.08;;;24.10;46.50;;;;;;5047647;28;20227;-39
2021/12/25 09:31:22;;;;;;;2.10;1.00;;;24.10;46.50;;;;;;5048225;28;20310;-40
2021/12/25 09:33:53;;;;;;;1.85;0.95;;;24.10;46.60;;;;;;5046459;28;20382;-41
2021/12/25 09:36:26;;;;;;;2.55;1.02;;;24.00;46.50;;;;;;5047386;28;20196;-40
2021/12/25 09:38:57;;;;;;;1.73;1.00;;;24.00;46.60;;;;;;5047339;28;20245;-41
2021/12/25 09:41:29;;;;;;;2.03;0.93;;;24.00;46.60;;;;;;5048378;28;20401;-42
2021/12/25 09:44:00;;;;;;;3.20;1.10;;;24.00;46.60;;;;;;5046436;28;20230;-40
2021/12/25 09:46:32;;;;;;;2.58;1.10;;;24.00;46.60;;;;;;5047697;28;20195;-41
2021/12/25 09:49:03;;;;;;;1.88;1.00;;;23.90;46.60;;;;;;5048504;28;20243;-40
2021/12/25 09:51:34;;;;;;;1.70;0.60;;;23.90;46.60;;;;;;5048761;28;20200;-43
2021/12/25 09:54:06;;;;;;;1.10;0.80;;;23.90;46.60;;;;;;5048765;28;20275;-42
2021/12/25 09:56:38;;;;;;;1.52;0.88;;;23.80;46.70;;;;;;5048763;28;20218;-39
2021/12/25 09:59:10;;;;;;;1.27;0.88;;;23.80;46.70;;;;;;5046954;28;20302;-40
2021/12/25 10:01:44;;;;;;;2.10;0.95;;;23.80;46.70;;;;;;5046677;28;20199;-40
2021/12/25 10:04:31;;;;;;;1.50;0.80;;;23.80;46.70;;;;;;5049448;28;20298;-40
2021/12/25 10:07:13;;;;;;;1.45;0.80;;;23.80;46.80;;;;;;5047295;28;20230;-40
2021/12/25 10:09:44;;;;;;;1.63;0.90;;;23.70;46.70;;;;;;5047322;28;20229;-40
2021/12/25 10:12:15;;;;;;;1.60;1.08;;;23.70;46.70;;;;;;5048118;28;20638;-40
2021/12/25 10:14:53;;;;;;;1.27;0.80;;;23.70;46.70;;;;;;5047806;28;20282;-40
2021/12/25 10:17:27;;;;;;;1.58;0.88;;;23.70;46.80;;;;;;5047563;28;20636;-40
2021/12/25 10:20:13;;;;;;;1.95;0.80;;;23.60;46.80;;;;;;5046335;28;20231;-40
2021/12/25 10:23:08;;;;;;;1.65;0.77;;;23.60;46.80;;;;;;5046872;28;20204;-40
2021/12/25 10:25:45;;;;;;;1.08;0.90;;;23.60;46.80;;;;;;5046612;28;20195;-40
2021/12/25 10:28:17;;;;;;;2.15;0.80;;;23.60;46.90;;;;;;5046266;28;20663;-40
2021/12/25 10:30:50;;;;;;;1.50;0.90;;;23.50;46.90;;;;;;5047762;28;21699;-40
2021/12/25 10:33:38;;;;;;;1.63;0.93;;;23.50;46.90;;;;;;5048168;28;20727;-40
2021/12/25 10:36:11;;;;;;;0.98;0.88;;;23.50;47.00;;;;;;5047957;28;20714;-39
2021/12/25 10:38:42;;;;;;;2.03;1.00;;;23.40;46.90;;;;;;5047730;28;20254;-40
2021/12/25 10:41:22;;;;;;;2.38;1.00;;;23.40;47.00;;;;;;5046843;28;20314;-40
2021/12/25 10:44:13;;;;;;;1.30;1.00;;;23.40;47.00;;;;;;5046688;28;20253;-39
2021/12/25 10:46:56;;;;;;;1.67;0.82;;;23.40;47.00;;;;;;5046232;28;20278;-41
2021/12/25 10:49:33;;;;;;;1.77;0.80;;;23.40;47.00;;;;;;5046398;28;20306;-42
2021/12/25 10:52:15;;;;;;;2.15;0.88;;;23.30;47.00;;;;;;5045558;28;20203;-40
2021/12/25 10:54:48;;;;;;;1.83;0.70;;;23.40;47.10;;;;;;5047269;28;20254;-40
2021/12/25 10:57:38;;;;;;;1.05;0.80;;;23.30;47.10;;;;;;5047068;28;20733;-40
2021/12/25 11:00:11;;;;;;;0.85;0.60;;;23.30;47.10;;;;;;5047325;28;20340;-42
2021/12/25 11:02:43;;;;;;;1.83;0.88;;;23.30;47.10;;;;;;5047356;28;20282;-40
2021/12/25 11:05:24;;;;;;;2.50;0.75;;;23.30;47.10;;;;;;5046345;28;20286;-41
2021/12/25 11:08:07;;;;;;;2.13;0.90;;;23.20;47.10;;;;;;5046690;28;20279;-43
2021/12/25 11:10:46;;;;;;;1.65;0.70;;;23.20;47.10;;;;;;5045962;28;20230;-43
2021/12/25 11:13:26;;;;;;;1.42;0.88;;;23.20;47.20;;;;;;5045798;28;20290;-47
2021/12/25 11:16:03;;;;;;;1.98;0.90;;;23.20;47.20;;;;;;5045965;28;20279;-46
2021/12/25 11:19:00;;;;;;;1.90;0.98;;;23.10;47.20;;;;;;5045377;28;20230;-40
2021/12/25 11:21:35;;;;;;;1.35;0.70;;;23.10;47.20;;;;;;5046857;28;20851;-43
2021/12/25 11:24:12;;;;;;;1.33;0.75;;;23.10;47.30;;;;;;5047441;28;20277;-40
2021/12/25 11:26:43;;;;;;;1.73;0.93;;;23.00;47.20;;;;;;5046366;28;20347;-41
2021/12/25 11:29:16;;;;;;;1.67;0.80;;;23.00;47.30;;;;;;5048985;28;21076;-40
2021/12/25 11:31:48;;;;;;;1.48;0.70;;;23.00;47.30;;;;;;5034734;28;20737;-41
2021/12/25 11:34:19;;;;;;;1.15;0.70;;;23.00;47.30;;;;;;5043557;28;20283;-42
2021/12/25 11:36:54;;;;;;;2.17;0.80;;;23.00;47.30;;;;;;5042354;28;20626;-38
2021/12/25 11:39:27;;;;;;;1.40;0.85;;;23.00;47.40;;;;;;5035320;28;20293;-39
2021/12/25 11:42:03;;;;;;;1.05;0.77;;;22.90;47.40;;;;;;5046766;28;20233;-39
2021/12/25 11:44:40;;;;;;;1.58;0.73;;;22.90;47.40;;;;;;5030391;28;20676;-38
2021/12/25 11:47:30;;;;;;;1.20;0.90;;;22.90;47.40;;;;;;5047580;28;20639;-39
2021/12/25 11:50:01;;;;;;;1.58;0.73;;;22.90;47.40;;;;;;5048161;28;20310;-39
2021/12/25 11:52:39;;;;;;;0.75;0.60;;;22.90;47.40;;;;;;5046895;28;20290;-42
2021/12/25 11:56:02;;;;;;;1.77;0.77;;;22.90;47.40;;;;;;5043924;28;20200;-38
2021/12/25 11:58:45;;;;;;;1.40;0.85;;;22.80;47.40;;;;;;5037241;28;20263;-38
2021/12/25 12:01:34;;;;;;;1.05;0.70;;;22.80;47.40;;;;;;5047396;28;20225;-39
2021/12/25 12:04:14;;;;;;;0.70;0.70;;;22.80;47.40;;;;;;5051419;28;20305;-38
2021/12/25 12:07:04;;;;;;;1.17;0.90;;;22.80;47.40;;;;;;5051037;28;20199;-40
2021/12/25 12:09:52;;;;;;;0.95;0.60;;;22.70;47.40;;;;;;5049719;28;20753;-38
2021/12/25 12:12:25;;;;;;;0.95;0.70;;;22.70;47.40;;;;;;5040976;28;20205;-38
2021/12/25 12:15:16;;;;;;;0.80;0.70;;;22.70;47.40;;;;;;5049945;28;20291;-38
2021/12/25 12:17:47;;;;;;;0.73;0.70;;;22.70;47.50;;;;;;5050213;28;20316;-39
2021/12/25 12:20:39;;;;;;;1.20;0.70;;;22.70;47.60;;;;;;5050199;28;21157;-38
2021/12/25 12:23:38;;;;;;;1.02;0.60;;;22.60;47.60;;;;;;5051362;28;20199;-39
2021/12/25 12:26:13;;;;;;;0.90;0.70;;;22.60;47.60;;;;;;5033917;28;20288;-40
2021/12/25 12:28:52;;;;;;;1.13;0.77;;;22.60;47.60;;;;;;5051226;28;20219;-38
2021/12/25 12:31:43;;;;;;;0.77;0.55;;;22.50;47.60;;;;;;5050021;28;20203;-38
2021/12/25 12:34:36;;;;;;;1.13;0.65;;;22.50;47.60;;;;;;5049887;28;20677;-39
2021/12/25 12:37:27;;;;;;;1.25;0.85;;;22.50;47.60;;;;;;5049378;28;20730;-39
2021/12/25 12:40:24;;;;;;;0.70;0.60;;;22.50;47.60;;;;;;5038374;28;20222;-41
2021/12/25 12:43:01;;;;;;;1.50;0.70;;;22.50;47.60;;;;;;5049591;28;20206;-38
2021/12/25 12:45:34;;;;;;;1.02;0.70;;;22.40;47.50;;;;;;5048542;28;20206;-38
2021/12/25 12:48:17;;;;;;;0.60;0.60;;;22.50;47.60;;;;;;5044006;28;20249;-38
2021/12/25 12:50:50;;;;;;;0.98;0.80;;;22.40;47.60;;;;;;5040455;28;20278;-38
2021/12/25 12:53:22;;;;;;;0.63;0.55;;;22.40;47.60;;;;;;5049378;28;20286;-39
2021/12/25 12:55:53;;;;;;;0.88;0.60;;;22.40;47.60;;;;;;5034870;28;20738;-39
2021/12/25 12:58:27;;;;;;;0.82;0.60;;;22.40;47.70;;;;;;5045187;28;20702;-39
2021/12/25 13:00:59;;;;;;;2.00;0.93;;;22.30;47.70;;;;;;5044169;28;20306;-38
2021/12/25 13:03:31;;;;;;;0.60;0.50;;;22.30;47.70;;;;;;5047031;28;20207;-38
2021/12/25 13:06:05;;;;;;;0.77;0.57;;;22.30;47.70;;;;;;5043425;28;20283;-40
2021/12/25 13:08:39;;;;;;;0.82;0.65;;;22.30;47.70;;;;;;5035961;28;20776;-38
2021/12/25 13:11:14;;;;;;;0.88;0.50;;;22.30;47.70;;;;;;5035342;28;20608;-38
2021/12/25 13:13:54;;;;;;;0.82;0.60;;;22.30;47.80;;;;;;5047439;28;20205;-38
2021/12/25 13:16:28;;;;;;;0.60;0.60;;;22.20;47.80;;;;;;5050509;28;20199;-40
2021/12/25 13:19:03;;;;;;;1.08;0.57;;;22.20;47.80;;;;;;5049569;28;20619;-38
2021/12/25 13:21:34;;;;;;;0.70;0.40;;;22.20;47.80;;;;;;5038316;28;20223;-38
2021/12/25 13:24:08;;;;;;;0.70;0.70;;;22.20;47.80;;;;;;5035837;28;20227;-38
2021/12/25 13:26:42;;;;;;;0.73;0.60;;;22.20;47.80;;;;;;5040492;28;20288;-38
2021/12/25 13:29:16;;;;;;;1.10;0.60;;;22.10;47.80;;;;;;5046693;28;20224;-38
2021/12/25 13:31:48;;;;;;;0.80;0.60;;;22.10;47.80;;;;;;5048132;28;20670;-39
2021/12/25 13:34:23;;;;;;;1.05;0.70;;;22.10;47.80;;;;;;5032585;28;20286;-39
2021/12/25 13:36:54;;;;;;;1.90;0.60;;;22.10;47.80;;;;;;5036388;28;20199;-38
2021/12/25 13:39:27;;;;;;;0.88;0.70;;;22.10;47.80;;;;;;5035812;28;20737;-38
2021/12/25 13:41:59;;;;;;;1.58;0.70;;;22.10;47.80;;;;;;5044404;28;20223;-40
2021/12/25 13:44:33;;;;;;;0.63;0.57;;;22.00;48.40;;;;;;5046949;28;20231;-39
2021/12/25 13:47:05;;;;;;;1.10;0.70;;;22.00;47.80;;;;;;5048254;28;20191;-39
2021/12/25 13:49:38;;;;;;;0.80;0.57;;;22.00;47.80;;;;;;5046987;28;20648;-38
2021/12/25 13:52:11;;;;;;;1.00;0.77;;;22.00;47.80;;;;;;5032321;28;20283;-38
2021/12/25 13:54:42;;;;;;;1.45;0.70;;;22.00;47.90;;;;;;5045522;28;20206;-38
2021/12/25 13:57:14;;;;;;;1.08;0.65;;;22.00;47.90;;;;;;5048641;28;20856;-40
2021/12/25 13:59:53;;;;;;;0.50;0.50;;;21.90;47.90;;;;;;5043453;28;20223;-38
2021/12/25 14:02:25;;;;;;;0.90;0.60;;;22.00;48.00;;;;;;5047629;28;20821;-41
2021/12/25 14:04:56;;;;;;;0.55;0.40;;;21.90;47.90;;;;;;5046891;28;20223;-40
2021/12/25 14:07:28;;;;;;;1.15;0.50;;;21.90;47.90;;;;;;5048857;28;20227;-38
2021/12/25 14:10:01;;;;;;;0.52;0.47;;;21.90;48.00;;;;;;5031568;28;20227;-38
2021/12/25 14:12:32;;;;;;;0.82;0.60;;;21.90;48.00;;;;;;5049217;28;20282;-40
2021/12/25 14:15:06;;;;;;;1.15;0.73;;;21.90;47.90;;;;;;5034989;28;20287;-39
2021/12/25 14:17:37;;;;;;;0.88;0.60;;;21.90;48.00;;;;;;5043925;28;20742;-39
2021/12/25 14:20:12;;;;;;;0.80;0.52;;;21.80;47.90;;;;;;5047079;28;20302;-39
2021/12/25 14:22:44;;;;;;;1.08;0.60;;;21.80;47.90;;;;;;5046437;28;20623;-38
2021/12/25 14:25:25;;;;;;;1.05;0.63;;;21.80;47.90;;;;;;5047813;28;20708;-38